Time;durP1;ratioP1;P1;durP2;ratioP2;P2;SDS_P1;SDS_P2;PMS_P1;PMS_P2;Temp;Humidity;BMP_temperature;BMP_pressure;BME280_temperature;BME280_humidity;BME280_pressure;Samples;Min_cycle;Max_cycle;Signal;HPM_P1;HPM_P2
2022/02/13 00:00:56;;;;;;;42.88;19.32;;;;;;;-0.50;78.13;102039.83;1696248;84;25825;-78
2022/02/13 00:03:24;;;;;;;33.67;16.12;;;;;;;-0.49;78.07;102041.55;1681634;84;25311;-79
2022/02/13 00:05:51;;;;;;;39.03;16.27;;;;;;;-0.49;78.10;102037.11;1678840;84;26471;-78
2022/02/13 00:08:18;;;;;;;34.05;16.37;;;;;;;-0.48;78.05;102031.39;1678913;84;25784;-78
2022/02/13 00:10:45;;;;;;;38.45;15.43;;;;;;;-0.48;77.90;102022.17;1679243;84;28309;-79
2022/02/13 00:13:13;;;;;;;33.58;15.75;;;;;;;-0.48;77.90;102020.40;1678905;84;26305;-78
2022/02/13 00:15:40;;;;;;;33.55;15.03;;;;;;;-0.46;77.75;102021.62;1689075;84;25964;-77
2022/02/13 00:18:06;;;;;;;34.27;14.85;;;;;;;-0.47;77.67;102014.19;1696203;83;26003;-78
2022/02/13 00:20:32;;;;;;;36.40;16.23;;;;;;;-0.47;77.72;102019.45;1680715;84;25954;-78
2022/02/13 00:22:58;;;;;;;40.85;16.93;;;;;;;-0.44;77.78;102014.04;1689843;84;28271;-78
2022/02/13 00:25:25;;;;;;;36.35;15.20;;;;;;;-0.43;77.83;102011.80;1679070;84;25920;-78
2022/02/13 00:27:51;;;;;;;29.18;15.35;;;;;;;-0.45;77.75;102007.05;1689592;84;25884;-78
2022/02/13 00:30:17;;;;;;;33.35;13.22;;;;;;;-0.47;77.72;101999.71;1695885;83;26292;-78
2022/02/13 00:32:45;;;;;;;32.53;15.93;;;;;;;-0.50;77.70;101998.58;1695085;84;26034;-78
2022/02/13 00:35:12;;;;;;;28.55;14.45;;;;;;;-0.57;77.65;101999.83;1686138;84;28291;-78
2022/02/13 00:37:40;;;;;;;28.90;13.80;;;;;;;-0.59;77.70;101986.36;1695439;84;26576;-78
2022/02/13 00:40:10;;;;;;;27.13;13.78;;;;;;;-0.61;77.68;101989.09;1695964;83;25770;-78
2022/02/13 00:42:37;;;;;;;31.90;14.28;;;;;;;-0.65;77.69;101992.81;1696144;84;26372;-78
2022/02/13 00:45:05;;;;;;;36.17;15.13;;;;;;;-0.67;77.82;101985.47;1687303;84;25883;-78
2022/02/13 00:47:31;;;;;;;32.50;14.55;;;;;;;-0.67;77.82;101982.84;1692746;83;27439;-77
2022/02/13 00:49:57;;;;;;;38.48;15.15;;;;;;;-0.67;77.77;101976.27;1695581;84;26131;-79
2022/02/13 00:52:24;;;;;;;33.80;14.90;;;;;;;-0.70;77.75;101975.09;1685875;84;25886;-78
2022/02/13 00:54:50;;;;;;;36.33;13.75;;;;;;;-0.73;77.76;101963.44;1679320;84;26175;-78
2022/02/13 00:57:16;;;;;;;30.48;14.87;;;;;;;-0.75;77.81;101962.67;1690595;84;26645;-78
2022/02/13 00:59:43;;;;;;;29.18;13.90;;;;;;;-0.77;77.88;101961.05;1681908;84;27477;-78
2022/02/13 01:02:10;;;;;;;33.15;14.65;;;;;;;-0.78;77.96;101947.04;1682551;84;26089;-77
2022/02/13 01:04:36;;;;;;;31.97;14.18;;;;;;;-0.80;77.95;101937.92;1677649;83;25926;-77
2022/02/13 01:07:02;;;;;;;33.90;15.63;;;;;;;-0.79;77.98;101938.29;1672967;84;26240;-77
2022/02/13 01:09:29;;;;;;;30.57;14.95;;;;;;;-0.79;78.01;101926.45;1672053;84;25846;-78
2022/02/13 01:11:55;;;;;;;34.05;13.88;;;;;;;-0.76;77.96;101932.02;1676475;84;28139;-77
2022/02/13 01:14:21;;;;;;;28.50;14.33;;;;;;;-0.77;77.94;101921.59;1683626;84;26071;-79
2022/02/13 01:16:47;;;;;;;35.65;14.87;;;;;;;-0.79;78.00;101917.25;1688181;84;25886;-77
2022/02/13 01:19:14;;;;;;;34.53;14.90;;;;;;;-0.81;77.88;101908.59;1688615;84;25915;-78
2022/02/13 01:21:40;;;;;;;36.85;13.80;;;;;;;-0.82;77.89;101906.05;1688043;84;26569;-78
2022/02/13 01:24:06;;;;;;;29.25;13.72;;;;;;;-0.83;77.99;101894.67;1682629;84;27536;-78
2022/02/13 01:26:33;;;;;;;27.95;13.70;;;;;;;-0.81;78.00;101890.63;1677767;84;25373;-77
2022/02/13 01:29:00;;;;;;;34.98;17.07;;;;;;;-0.82;77.91;101889.81;1672613;84;25916;-78
2022/02/13 01:31:27;;;;;;;35.30;15.75;;;;;;;-0.82;77.90;101883.69;1678036;84;25821;-77
2022/02/13 01:33:53;;;;;;;32.40;14.98;;;;;;;-0.85;77.86;101884.70;1671913;84;26022;-77
2022/02/13 01:36:20;;;;;;;31.45;14.70;;;;;;;-0.85;77.89;101882.53;1677079;84;28068;-78
2022/02/13 01:38:47;;;;;;;31.80;14.00;;;;;;;-0.84;77.93;101871.09;1686331;84;25872;-78
2022/02/13 01:41:13;;;;;;;28.52;14.83;;;;;;;-0.85;77.92;101874.64;1682891;84;25718;-78
2022/02/13 01:43:39;;;;;;;35.73;14.78;;;;;;;-0.84;77.86;101863.20;1680574;84;26234;-79
2022/02/13 01:46:06;;;;;;;32.00;14.68;;;;;;;-0.85;77.80;101858.40;1688074;84;26480;-77
2022/02/13 01:48:33;;;;;;;34.10;15.23;;;;;;;-0.84;77.82;101859.25;1674023;84;28304;-78
2022/02/13 01:51:00;;;;;;;33.45;14.75;;;;;;;-0.87;77.74;101852.83;1681234;84;26787;-77
2022/02/13 01:53:28;;;;;;;32.38;16.02;;;;;;;-0.87;77.69;101852.38;1678134;84;26026;-77
2022/02/13 01:55:55;;;;;;;28.25;13.20;;;;;;;-0.88;77.79;101844.09;1680415;84;25876;-77
2022/02/13 01:58:21;;;;;;;31.62;15.05;;;;;;;-0.86;77.76;101846.66;1681413;84;25815;-78
2022/02/13 02:00:47;;;;;;;31.40;13.93;;;;;;;-0.86;77.58;101837.45;1679339;84;28326;-78
2022/02/13 02:03:14;;;;;;;27.32;13.40;;;;;;;-0.86;77.58;101837.45;1679859;84;25925;-79
2022/02/13 02:05:42;;;;;;;29.45;14.25;;;;;;;-0.86;77.67;101836.13;1684824;84;25628;-78
2022/02/13 02:08:09;;;;;;;36.10;15.88;;;;;;;-0.87;77.61;101827.84;1689160;84;26517;-78
2022/02/13 02:10:36;;;;;;;33.28;13.95;;;;;;;-0.89;77.56;101827.94;1688011;83;26019;-78
2022/02/13 02:13:02;;;;;;;28.77;12.33;;;;;;;-0.90;77.55;101821.45;1685783;84;28467;-78
2022/02/13 02:15:29;;;;;;;34.08;13.70;;;;;;;-0.91;77.57;101820.60;1688765;83;25938;-77
2022/02/13 02:17:55;;;;;;;28.75;12.82;;;;;;;-0.92;77.67;101817.58;1687351;84;25296;-78
2022/02/13 02:20:22;;;;;;;33.88;14.58;;;;;;;-0.92;77.71;101813.63;1682497;84;25856;-78
2022/02/13 02:22:55;;;;;;;27.40;12.82;;;;;;;-0.91;77.64;101823.23;1686275;84;25883;-77
2022/02/13 02:25:23;;;;;;;31.60;12.68;;;;;;;-0.90;77.64;101814.88;1686008;84;26830;-78
2022/02/13 02:27:50;;;;;;;25.75;12.70;;;;;;;-0.92;77.63;101812.31;1685356;84;26002;-77
2022/02/13 02:30:16;;;;;;;28.62;13.53;;;;;;;-0.92;77.57;101809.69;1687678;84;26548;-77
2022/02/13 02:32:42;;;;;;;27.25;12.45;;;;;;;-0.91;77.60;101809.23;1690016;84;25931;-77
2022/02/13 02:35:09;;;;;;;28.40;12.50;;;;;;;-0.91;77.53;101803.97;1689530;84;25993;-78
2022/02/13 02:37:35;;;;;;;27.65;12.13;;;;;;;-0.91;77.32;101802.19;1688155;84;27550;-78
2022/02/13 02:40:02;;;;;;;26.68;11.88;;;;;;;-0.94;77.36;101793.14;1685979;84;26625;-77
2022/02/13 02:42:28;;;;;;;26.33;12.68;;;;;;;-0.91;77.44;101792.13;1688719;84;25925;-77
2022/02/13 02:44:55;;;;;;;29.27;12.85;;;;;;;-0.90;77.41;101793.35;1687426;84;26600;-78
2022/02/13 02:47:21;;;;;;;26.48;13.08;;;;;;;-0.89;77.19;101787.63;1687018;84;26545;-78
2022/02/13 02:49:47;;;;;;;30.57;11.75;;;;;;;-0.91;77.28;101786.41;1689082;84;27515;-78
2022/02/13 02:52:13;;;;;;;26.30;12.33;;;;;;;-0.91;77.31;101787.73;1687019;84;26577;-78
2022/02/13 02:54:40;;;;;;;25.08;12.70;;;;;;;-0.92;77.28;101788.64;1686862;84;26562;-78
2022/02/13 02:57:06;;;;;;;26.55;12.18;;;;;;;-0.90;77.32;101783.33;1689327;84;26631;-79
2022/02/13 02:59:32;;;;;;;26.52;12.28;;;;;;;-0.91;77.42;101775.89;1687130;84;25764;-78
2022/02/13 03:01:58;;;;;;;26.82;12.43;;;;;;;-0.93;77.25;101773.81;1690037;84;27438;-79
2022/02/13 03:04:24;;;;;;;30.88;13.90;;;;;;;-0.93;77.18;101772.50;1684136;83;26034;-78
2022/02/13 03:06:51;;;;;;;24.80;13.10;;;;;;;-0.93;77.28;101772.95;1685230;84;25831;-78
2022/02/13 03:09:17;;;;;;;24.52;12.70;;;;;;;-0.94;77.30;101766.02;1681909;84;26579;-77
2022/02/13 03:11:43;;;;;;;26.33;12.45;;;;;;;-0.96;77.43;101758.19;1681940;84;25911;-79
2022/02/13 03:14:10;;;;;;;29.20;13.25;;;;;;;-0.95;77.45;101758.59;1681811;84;27458;-77
2022/02/13 03:16:36;;;;;;;32.08;12.50;;;;;;;-0.95;77.54;101749.84;1680435;84;25895;-77
2022/02/13 03:19:03;;;;;;;30.55;11.95;;;;;;;-0.95;77.51;101752.48;1679343;83;25764;-77
2022/02/13 03:21:29;;;;;;;26.45;11.63;;;;;;;-0.96;77.53;101739.78;1682011;84;26224;-78
2022/02/13 03:23:55;;;;;;;27.25;11.95;;;;;;;-0.97;77.42;101743.37;1656102;84;25950;-78
2022/02/13 03:26:24;;;;;;;30.02;13.62;;;;;;;-0.99;77.42;101738.66;1680566;84;28383;-78
2022/02/13 03:28:49;;;;;;;31.75;12.10;;;;;;;-0.99;77.41;101743.06;1679094;84;25919;-78
2022/02/13 03:31:15;;;;;;;26.15;12.68;;;;;;;-0.98;77.43;101740.80;1680939;84;25913;-78
2022/02/13 03:33:41;;;;;;;31.12;12.75;;;;;;;-0.98;77.40;101736.39;1681245;84;26140;-77
2022/02/13 03:36:08;;;;;;;32.40;14.13;;;;;;;-0.96;77.37;101734.98;1681603;84;25845;-78
2022/02/13 03:38:34;;;;;;;21.90;11.70;;;;;;;-0.95;77.42;101734.92;1679779;84;28223;-77
2022/02/13 03:41:00;;;;;;;30.50;14.33;;;;;;;-0.92;77.37;101736.54;1679757;84;25570;-78
2022/02/13 03:43:27;;;;;;;32.35;13.88;;;;;;;-0.93;77.24;101733.05;1682117;84;25807;-77
2022/02/13 03:45:53;;;;;;;24.65;12.23;;;;;;;-0.93;77.20;101730.88;1681204;84;26553;-78
2022/02/13 03:48:19;;;;;;;28.57;13.25;;;;;;;-0.95;77.07;101728.80;1680936;84;26013;-77
2022/02/13 03:50:45;;;;;;;25.97;12.88;;;;;;;-0.95;77.11;101729.66;1678699;84;27474;-79
2022/02/13 03:53:12;;;;;;;27.70;11.90;;;;;;;-0.93;77.20;101733.05;1675418;84;25978;-78
2022/02/13 03:55:38;;;;;;;28.42;12.85;;;;;;;-0.93;77.03;101727.80;1680511;84;26474;-78
2022/02/13 03:58:04;;;;;;;29.12;13.00;;;;;;;-0.91;77.24;101730.33;1681665;84;26761;-78
2022/02/13 04:00:30;;;;;;;32.40;14.63;;;;;;;-0.91;77.20;101720.66;1679694;84;25826;-77
2022/02/13 04:02:58;;;;;;;28.77;13.03;;;;;;;-0.90;77.37;101722.84;1680159;84;27063;-78
2022/02/13 04:05:25;;;;;;;28.12;13.18;;;;;;;-0.87;77.29;101726.59;1681513;84;25940;-78
2022/02/13 04:07:52;;;;;;;27.77;13.15;;;;;;;-0.86;77.21;101723.89;1679701;84;25841;-77
2022/02/13 04:10:18;;;;;;;25.72;12.78;;;;;;;-0.83;77.22;101725.48;1680210;84;26556;-78
2022/02/13 04:12:45;;;;;;;23.27;12.10;;;;;;;-0.82;77.09;101722.78;1681940;84;25813;-79
2022/02/13 04:15:12;;;;;;;26.80;12.18;;;;;;;-0.81;76.99;101718.34;1675266;84;27468;-78
2022/02/13 04:17:39;;;;;;;23.70;11.75;;;;;;;-0.79;77.06;101718.64;1679944;84;25866;-77
2022/02/13 04:20:07;;;;;;;22.93;12.05;;;;;;;-0.79;77.08;101706.80;1681638;84;25770;-78
2022/02/13 04:22:33;;;;;;;28.42;12.85;;;;;;;-0.75;76.94;101701.38;1679450;84;26022;-78
2022/02/13 04:24:59;;;;;;;25.23;11.50;;;;;;;-0.78;76.91;101699.77;1683201;84;26517;-79
2022/02/13 04:27:26;;;;;;;27.60;12.20;;;;;;;-0.77;76.73;101699.31;1679002;84;27522;-78
2022/02/13 04:29:53;;;;;;;26.35;12.80;;;;;;;-0.78;76.69;101693.19;1677926;84;25861;-77
2022/02/13 04:32:19;;;;;;;23.52;12.40;;;;;;;-0.76;76.72;101686.06;1680225;84;25810;-78
2022/02/13 04:34:46;;;;;;;23.67;12.13;;;;;;;-0.78;76.65;101685.30;1682760;84;26747;-78
2022/02/13 04:37:14;;;;;;;27.45;14.73;;;;;;;-0.78;76.58;101687.93;1679458;84;25783;-77
2022/02/13 04:39:40;;;;;;;30.35;12.93;;;;;;;-0.79;76.68;101686.22;1679954;84;27477;-77
2022/02/13 04:42:07;;;;;;;27.42;12.75;;;;;;;-0.79;76.57;101679.19;1681601;84;25774;-77
2022/02/13 04:44:33;;;;;;;27.52;12.98;;;;;;;-0.80;76.57;101677.51;1679584;84;26489;-78
2022/02/13 04:46:59;;;;;;;28.02;12.93;;;;;;;-0.82;76.33;101674.58;1679857;84;26010;-78
2022/02/13 04:49:26;;;;;;;27.10;12.90;;;;;;;-0.82;76.68;101675.90;1681845;84;25765;-78
2022/02/13 04:51:52;;;;;;;27.58;13.05;;;;;;;-0.86;76.58;101666.49;1679260;84;28130;-78
2022/02/13 04:54:18;;;;;;;25.37;13.60;;;;;;;-0.87;76.65;101667.41;1682827;84;25938;-77
2022/02/13 04:56:44;;;;;;;27.35;13.13;;;;;;;-0.87;76.78;101663.00;1679444;84;25790;-79
2022/02/13 04:59:11;;;;;;;23.90;11.83;;;;;;;-0.86;76.92;101662.55;1681732;84;25974;-78
2022/02/13 05:01:37;;;;;;;32.80;15.50;;;;;;;-0.87;76.91;101666.09;1680082;84;25292;-78
2022/02/13 05:04:03;;;;;;;30.77;15.72;;;;;;;-0.87;76.99;101666.09;1678965;84;27442;-78
2022/02/13 05:06:30;;;;;;;33.60;15.65;;;;;;;-0.87;76.91;101664.78;1682710;84;25873;-78
2022/02/13 05:08:57;;;;;;;31.33;15.18;;;;;;;-0.88;76.87;101659.98;1680645;84;25846;-78
2022/02/13 05:11:23;;;;;;;32.15;15.08;;;;;;;-0.89;76.95;101662.70;1681619;84;26475;-79
2022/02/13 05:13:50;;;;;;;30.23;13.85;;;;;;;-0.89;76.83;101661.39;1676810;84;25853;-78
2022/02/13 05:16:16;;;;;;;30.48;14.58;;;;;;;-0.93;76.84;101655.94;1678521;84;28274;-78
2022/02/13 05:18:42;;;;;;;29.63;14.35;;;;;;;-0.93;76.84;101655.94;1677663;84;25898;-78
2022/02/13 05:21:08;;;;;;;32.17;14.75;;;;;;;-0.95;76.73;101661.29;1682147;84;25858;-78
2022/02/13 05:23:34;;;;;;;33.73;15.48;;;;;;;-0.94;76.56;101660.83;1679761;84;26203;-78
2022/02/13 05:26:02;;;;;;;27.42;14.65;;;;;;;-0.94;77.01;101652.94;1683286;84;25849;-77
2022/02/13 05:28:28;;;;;;;34.67;15.13;;;;;;;-0.92;77.14;101652.38;1678446;84;28249;-79
2022/02/13 05:30:55;;;;;;;31.77;14.33;;;;;;;-0.93;77.07;101644.95;1675264;84;26555;-79
2022/02/13 05:33:21;;;;;;;29.63;15.05;;;;;;;-0.93;77.06;101642.78;1681267;84;25812;-78
2022/02/13 05:35:47;;;;;;;31.87;15.78;;;;;;;-0.95;76.96;101642.88;1686891;84;25785;-77
2022/02/13 05:38:14;;;;;;;32.50;14.35;;;;;;;-0.94;77.00;101640.61;1674820;84;25732;-78
2022/02/13 05:40:40;;;;;;;31.60;15.45;;;;;;;-0.93;76.88;101637.52;1686919;84;27428;-78
2022/02/13 05:43:06;;;;;;;28.67;14.95;;;;;;;-0.94;76.83;101637.16;1682001;84;25886;-78
2022/02/13 05:45:32;;;;;;;34.58;16.57;;;;;;;-0.94;76.84;101635.84;1679857;83;26549;-78
2022/02/13 05:47:59;;;;;;;38.40;16.23;;;;;;;-0.94;76.92;101632.72;1676561;84;25479;-78
2022/02/13 05:50:25;;;;;;;34.33;15.30;;;;;;;-0.94;76.99;101630.59;1681504;84;26001;-78
2022/02/13 05:52:54;;;;;;;29.60;14.93;;;;;;;-0.93;76.95;101634.89;1679192;84;27464;-78
2022/02/13 05:55:21;;;;;;;34.70;15.35;;;;;;;-0.93;76.93;101638.38;1686624;84;25845;-78
2022/02/13 05:57:47;;;;;;;32.85;14.63;;;;;;;-0.92;76.96;101640.55;1681644;84;25762;-78
2022/02/13 06:00:14;;;;;;;28.52;13.83;;;;;;;-0.90;76.94;101646.56;1679038;84;25836;-78
2022/02/13 06:02:41;;;;;;;32.90;15.80;;;;;;;-0.91;76.90;101644.39;1677731;84;25893;-78
2022/02/13 06:05:09;;;;;;;33.28;15.05;;;;;;;-0.91;76.95;101642.23;1635671;84;27470;-78
2022/02/13 06:07:41;;;;;;;32.17;15.35;;;;;;;-0.91;77.05;101638.28;1685336;83;25838;-78
2022/02/13 06:10:10;;;;;;;26.95;13.45;;;;;;;-0.92;77.04;101637.43;1677741;84;26107;-78
2022/02/13 06:12:37;;;;;;;34.23;13.88;;;;;;;-0.93;77.10;101630.48;1675732;84;26554;-78
2022/02/13 06:15:05;;;;;;;37.13;15.60;;;;;;;-0.92;77.10;101633.97;1677188;84;25781;-78
2022/02/13 06:17:32;;;;;;;28.83;14.18;;;;;;;-0.94;77.12;101630.09;1675815;84;28283;-78
2022/02/13 06:19:58;;;;;;;30.95;14.80;;;;;;;-0.93;77.00;101632.27;1676704;84;25964;-78
2022/02/13 06:22:25;;;;;;;26.35;13.10;;;;;;;-0.94;76.98;101631.91;1689818;84;26595;-78
2022/02/13 06:24:51;;;;;;;32.05;15.00;;;;;;;-0.96;77.01;101631.97;1676599;84;26278;-78
2022/02/13 06:27:17;;;;;;;33.25;14.47;;;;;;;-0.95;77.16;101631.51;1674875;84;26446;-79
2022/02/13 06:29:43;;;;;;;31.35;15.08;;;;;;;-0.94;77.18;101624.02;1678215;84;27587;-79
2022/02/13 06:32:09;;;;;;;27.25;13.00;;;;;;;-0.94;77.27;101614.81;1675639;84;25863;-78
2022/02/13 06:34:36;;;;;;;31.07;13.62;;;;;;;-0.94;77.12;101612.18;1677950;83;25779;-78
2022/02/13 06:37:02;;;;;;;34.03;14.28;;;;;;;-0.95;77.19;101616.59;1677945;84;25731;-78
2022/02/13 06:39:28;;;;;;;28.10;13.95;;;;;;;-0.95;77.11;101613.95;1672120;84;25830;-78
2022/02/13 06:41:55;;;;;;;34.18;14.28;;;;;;;-0.96;77.12;101610.93;1679647;84;28260;-78
2022/02/13 06:44:21;;;;;;;31.27;13.75;;;;;;;-0.94;77.07;101616.95;1676878;84;25883;-78
2022/02/13 06:46:47;;;;;;;30.68;14.00;;;;;;;-0.92;77.26;101611.12;1675459;84;25794;-78
2022/02/13 06:49:13;;;;;;;29.37;14.75;;;;;;;-0.91;77.29;101615.47;1678407;84;26342;-78
2022/02/13 06:51:40;;;;;;;34.23;14.10;;;;;;;-0.88;77.41;101606.06;1673763;84;25808;-79
2022/02/13 06:54:07;;;;;;;30.55;14.07;;;;;;;-0.87;77.38;101598.56;1679874;84;27474;-78
2022/02/13 06:56:33;;;;;;;30.27;15.65;;;;;;;-0.84;77.46;101595.77;1680391;84;25937;-78
2022/02/13 06:58:59;;;;;;;37.00;15.23;;;;;;;-0.80;77.42;101596.42;1677431;84;25815;-77
2022/02/13 07:01:26;;;;;;;34.43;15.15;;;;;;;-0.77;77.56;101594.95;1678730;84;26428;-78
2022/02/13 07:03:52;;;;;;;32.83;16.82;;;;;;;-0.74;77.44;101591.26;1674854;84;25845;-78
2022/02/13 07:06:18;;;;;;;37.55;15.38;;;;;;;-0.73;77.41;101592.97;1672091;84;27247;-78
2022/02/13 07:08:45;;;;;;;39.98;16.90;;;;;;;-0.70;77.38;101592.77;1666994;85;25790;-78
2022/02/13 07:11:11;;;;;;;38.28;17.05;;;;;;;-0.68;77.35;101589.11;1691265;83;26015;-78
2022/02/13 07:13:37;;;;;;;37.25;17.27;;;;;;;-0.67;77.30;101577.67;1674056;84;25746;-78
2022/02/13 07:16:05;;;;;;;34.67;16.25;;;;;;;-0.65;77.13;101578.42;1664229;85;25846;-79
2022/02/13 07:18:31;;;;;;;34.75;17.60;;;;;;;-0.62;77.22;101576.91;1665522;83;27453;-78
2022/02/13 07:20:57;;;;;;;32.17;15.10;;;;;;;-0.58;77.16;101567.06;1676804;85;25836;-78
2022/02/13 07:23:23;;;;;;;36.83;16.67;;;;;;;-0.52;77.26;101570.64;1666529;85;25860;-78
2022/02/13 07:25:50;;;;;;;32.63;17.45;;;;;;;-0.50;76.93;101561.72;1673235;83;26652;-78
2022/02/13 07:31:01;;;;;;;34.63;17.32;;;;;;;-0.41;77.29;101563.80;1661971;83;28320;-78
2022/02/13 07:33:27;;;;;;;35.50;17.87;;;;;;;-0.37;77.27;101556.09;1681141;84;25781;-78
2022/02/13 07:35:53;;;;;;;36.25;16.95;;;;;;;-0.31;76.97;101554.39;1688519;83;26012;-79
2022/02/13 07:38:20;;;;;;;38.30;18.82;;;;;;;-0.26;77.13;101552.80;1678872;84;26597;-78
2022/02/13 07:40:46;;;;;;;38.42;18.40;;;;;;;-0.22;76.86;101547.25;1664537;85;26006;-78
2022/02/13 07:43:12;;;;;;;32.53;17.23;;;;;;;-0.18;77.07;101552.70;1665936;85;27509;-79
2022/02/13 07:45:38;;;;;;;35.60;17.60;;;;;;;-0.12;77.01;101543.55;1690040;83;25920;-78
2022/02/13 07:48:04;;;;;;;33.23;17.60;;;;;;;-0.07;76.95;101546.30;1666999;85;25831;-78
2022/02/13 07:50:31;;;;;;;33.95;15.70;;;;;;;0.01;76.94;101543.16;1668142;85;25726;-78
2022/02/13 07:52:57;;;;;;;31.12;16.67;;;;;;;0.07;76.86;101544.09;1665657;85;26021;-78
2022/02/13 07:55:23;;;;;;;33.38;15.43;;;;;;;0.13;77.02;101541.06;1695045;83;27464;-78
2022/02/13 07:57:49;;;;;;;27.98;14.50;;;;;;;0.20;77.07;101532.30;1694801;83;25865;-78
2022/02/13 08:00:16;;;;;;;28.75;14.30;;;;;;;0.27;77.03;101533.61;1699007;83;26112;-78
2022/02/13 08:02:42;;;;;;;33.35;14.35;;;;;;;0.33;76.97;101530.57;1698683;83;26496;-78
2022/02/13 08:05:09;;;;;;;27.65;14.55;;;;;;;0.39;76.75;101520.95;1698568;83;26112;-79
2022/02/13 08:07:36;;;;;;;27.20;14.03;;;;;;;0.44;76.47;101518.41;1692056;83;27459;-79
2022/02/13 08:10:03;;;;;;;29.80;14.18;;;;;;;0.52;76.78;101512.62;1662044;84;25864;-78
2022/02/13 08:12:29;;;;;;;31.77;16.65;;;;;;;0.58;76.73;101513.06;1692306;84;25899;-78
2022/02/13 08:14:55;;;;;;;28.25;14.68;;;;;;;0.63;76.74;101508.34;1689097;84;25911;-78
2022/02/13 08:17:22;;;;;;;29.15;14.63;;;;;;;0.70;76.42;101511.42;1685585;84;25909;-78
2022/02/13 08:19:50;;;;;;;27.32;14.55;;;;;;;0.78;76.49;101507.33;1685190;84;28356;-78
2022/02/13 08:22:16;;;;;;;30.25;15.35;;;;;;;0.86;76.58;101500.20;1684172;84;26600;-78
2022/02/13 08:24:42;;;;;;;30.65;15.05;;;;;;;0.95;76.50;101492.15;1688412;84;25806;-78
2022/02/13 08:27:09;;;;;;;26.27;13.50;;;;;;;1.04;76.37;101498.13;1687563;84;26358;-78
2022/02/13 08:29:36;;;;;;;30.25;12.90;;;;;;;1.12;76.27;101499.77;1689430;84;25771;-78
2022/02/13 08:32:03;;;;;;;24.32;13.20;;;;;;;1.19;75.80;101499.72;1689423;83;27466;-79
2022/02/13 08:34:29;;;;;;;27.77;12.65;;;;;;;1.27;75.51;101496.08;1686419;83;25956;-78
2022/02/13 08:36:55;;;;;;;29.30;13.32;;;;;;;1.34;75.40;101495.56;1686154;84;26045;-78
2022/02/13 08:39:21;;;;;;;25.52;13.32;;;;;;;1.43;75.37;101493.58;1682800;84;25779;-78
2022/02/13 08:41:47;;;;;;;27.98;13.60;;;;;;;1.51;75.12;101487.78;1687978;84;26132;-78
2022/02/13 08:44:14;;;;;;;25.05;12.73;;;;;;;1.60;74.46;101495.06;1688242;82;27503;-79
2022/02/13 08:46:40;;;;;;;22.87;12.80;;;;;;;1.68;74.89;101487.91;1686905;83;26160;-78
2022/02/13 08:49:06;;;;;;;25.70;12.43;;;;;;;1.75;74.52;101477.29;1687754;84;26476;-78
2022/02/13 08:51:32;;;;;;;31.48;13.98;;;;;;;1.83;73.94;101488.14;1686762;83;25751;-79
2022/02/13 08:53:59;;;;;;;29.52;13.78;;;;;;;1.91;74.46;101488.44;1704027;83;26499;-79
2022/02/13 08:56:25;;;;;;;26.00;11.88;;;;;;;1.98;74.34;101485.73;1678752;84;27529;-78
2022/02/13 08:58:53;;;;;;;26.82;12.55;;;;;;;2.06;73.76;101479.41;1673495;84;26080;-78
2022/02/13 09:01:20;;;;;;;22.58;12.18;;;;;;;2.13;74.08;101474.05;1677202;84;25837;-79
2022/02/13 09:03:46;;;;;;;23.27;12.15;;;;;;;2.19;72.94;101477.56;1676293;84;25805;-78
2022/02/13 09:06:12;;;;;;;27.85;14.15;;;;;;;2.24;72.39;101472.80;1671172;84;25818;-79
2022/02/13 09:08:38;;;;;;;21.50;11.35;;;;;;;2.29;72.42;101470.64;1669439;85;27465;-78
2022/02/13 09:11:05;;;;;;;21.60;10.90;;;;;;;2.33;71.88;101470.81;1672755;84;25830;-79
2022/02/13 09:13:31;;;;;;;26.48;13.48;;;;;;;2.36;72.02;101481.14;1676134;84;25526;-78
2022/02/13 09:15:57;;;;;;;25.35;12.90;;;;;;;2.41;72.71;101472.41;1674389;84;25830;-79
2022/02/13 09:18:23;;;;;;;27.48;11.93;;;;;;;2.43;72.01;101459.91;1678118;84;25984;-80
2022/02/13 09:20:50;;;;;;;22.98;12.60;;;;;;;2.47;71.81;101467.98;1677602;84;27442;-79
2022/02/13 09:23:17;;;;;;;26.73;13.60;;;;;;;2.52;72.35;101461.88;1684155;84;25787;-79
2022/02/13 09:25:45;;;;;;;27.65;13.00;;;;;;;2.56;71.72;101458.05;1680159;84;25352;-79
2022/02/13 09:28:12;;;;;;;24.92;12.60;;;;;;;2.59;71.76;101459.12;1665348;85;25740;-78
2022/02/13 09:30:39;;;;;;;25.12;12.50;;;;;;;2.62;71.18;101457.58;1664252;85;26570;-79
2022/02/13 09:33:05;;;;;;;27.40;13.22;;;;;;;2.63;70.86;101434.13;1666106;85;27445;-78
2022/02/13 09:35:31;;;;;;;25.00;13.48;;;;;;;2.68;70.57;101432.45;1688106;83;26561;-79
2022/02/13 09:37:58;;;;;;;21.80;13.70;;;;;;;2.70;70.87;101431.39;1681054;84;25829;-79
2022/02/13 09:40:25;;;;;;;20.60;11.30;;;;;;;2.75;70.73;101435.02;1667108;84;25969;-78
2022/02/13 09:42:52;;;;;;;23.75;13.18;;;;;;;2.78;70.30;101426.86;1662187;84;25980;-79
2022/02/13 09:45:19;;;;;;;23.67;12.93;;;;;;;2.81;70.73;101427.45;1658520;85;27482;-78
2022/02/13 09:47:47;;;;;;;25.68;13.10;;;;;;;2.86;70.99;101425.78;1662151;85;25817;-78
2022/02/13 09:50:13;;;;;;;24.57;13.45;;;;;;;2.93;70.99;101421.72;1671716;84;26072;-79
2022/02/13 09:52:40;;;;;;;26.00;13.60;;;;;;;2.96;70.85;101412.20;1662623;85;26554;-78
2022/02/13 09:55:07;;;;;;;27.93;14.43;;;;;;;2.99;70.02;101413.30;1677455;84;25975;-78
2022/02/13 10:00:18;;;;;;;20.90;12.68;;;;;;;3.06;69.91;101410.52;1693777;83;25884;-78
2022/02/13 10:02:44;;;;;;;24.52;12.75;;;;;;;3.10;69.94;101404.88;1662782;85;25914;-80
2022/02/13 10:05:13;;;;;;;22.27;11.63;;;;;;;3.14;69.52;101409.47;1687744;83;25749;-79
2022/02/13 10:07:42;;;;;;;30.92;13.45;;;;;;;3.16;69.39;101408.02;1661002;84;26547;-78
2022/02/13 10:10:10;;;;;;;25.27;12.70;;;;;;;3.14;69.43;101395.72;1707168;83;27459;-78
2022/02/13 10:12:43;;;;;;;28.90;12.93;;;;;;;3.18;69.90;101398.14;1694567;83;25896;-79
2022/02/13 10:15:27;;;;;;;25.72;13.48;;;;;;;3.19;69.99;101386.10;1715234;83;25876;-80
2022/02/13 10:18:04;;;;;;;25.85;12.60;;;;;;;3.23;69.40;101376.95;1705857;83;25879;-78
2022/02/13 10:20:38;;;;;;;23.73;12.40;;;;;;;3.26;69.89;101376.72;1698716;83;25940;-78
2022/02/13 10:23:12;;;;;;;23.50;13.05;;;;;;;3.30;69.14;101370.69;1707607;83;28298;-79
2022/02/13 10:25:41;;;;;;;22.90;12.88;;;;;;;3.38;70.14;101368.30;1707192;83;25770;-78
2022/02/13 10:28:16;;;;;;;25.72;13.18;;;;;;;3.46;69.57;101371.17;1705277;83;25773;-79
2022/02/13 10:30:47;;;;;;;24.32;12.95;;;;;;;3.51;69.76;101368.51;1707199;83;25856;-79
2022/02/13 10:33:23;;;;;;;20.75;12.07;;;;;;;3.56;68.30;101363.69;1713308;83;25824;-78
2022/02/13 10:36:04;;;;;;;20.15;11.60;;;;;;;3.59;69.04;101367.91;1705884;83;27432;-79
2022/02/13 10:38:32;;;;;;;21.73;12.40;;;;;;;3.65;68.47;101355.48;1690917;84;25844;-78
2022/02/13 10:41:27;;;;;;;24.30;14.15;;;;;;;3.70;68.27;101340.89;1690482;83;25962;-79
2022/02/13 10:44:05;;;;;;;25.08;13.22;;;;;;;3.76;68.63;101342.22;1695533;84;25824;-79
2022/02/13 10:46:43;;;;;;;24.37;12.45;;;;;;;3.79;68.41;101348.09;1693442;84;26027;-79
2022/02/13 10:49:13;;;;;;;22.93;12.78;;;;;;;3.80;68.31;101349.80;1689437;83;27504;-78
2022/02/13 10:51:41;;;;;;;22.82;11.83;;;;;;;3.83;67.38;101339.41;1689960;84;25989;-79
2022/02/13 10:54:07;;;;;;;20.65;12.53;;;;;;;3.85;67.84;101340.97;1695153;84;25898;-79
2022/02/13 10:56:35;;;;;;;26.10;11.28;;;;;;;3.86;67.69;101340.02;1690418;84;25785;-78
2022/02/13 10:59:04;;;;;;;22.15;13.30;;;;;;;3.89;67.71;101326.48;1697373;84;25915;-79
2022/02/13 11:01:33;;;;;;;26.68;13.40;;;;;;;3.89;66.74;101327.00;1739820;81;28318;-78
2022/02/13 11:04:03;;;;;;;23.73;12.85;;;;;;;3.92;68.60;101329.38;1736851;81;26478;-79
2022/02/13 11:06:30;;;;;;;21.57;12.95;;;;;;;3.98;69.16;101314.28;1733890;81;25899;-79
2022/02/13 11:09:12;;;;;;;23.38;12.43;;;;;;;4.02;68.29;101314.39;1738521;81;26421;-79
2022/02/13 11:11:40;;;;;;;21.48;12.20;;;;;;;4.04;68.21;101305.85;1729311;81;25374;-79
2022/02/13 11:14:06;;;;;;;22.65;12.28;;;;;;;4.05;68.11;101299.56;1738366;81;27263;-79
2022/02/13 11:16:39;;;;;;;26.00;13.25;;;;;;;4.08;67.10;101293.17;1733449;81;25758;-79